METAR Data
IDs: Format: Raw Decoded Include TAF

Data at: 1315 UTC 21 Oct 2018

KOZA 211255Z AUTO 00000KT 10SM SCT110 11/08 A3038 RMK AO2
KOZA 211235Z AUTO 02004KT BKN100 11/07 A3038 RMK AO2 PWINO
KOZA 211215Z AUTO 00000KT BKN120 11/07 A3037 RMK AO2 PWINO
KOZA 211155Z AUTO 01004KT OVC110 11/07 A3038 RMK AO2 PWINO
KOZA 211135Z AUTO 03003KT BKN110 12/07 A3037 RMK AO2 PWINO
KOZA 211115Z AUTO 05005KT BKN100 12/07 A3036 RMK AO2 PWINO
KOZA 211055Z AUTO 04003KT OVC100 12/07 A3036 RMK AO2 PWINO
KOZA 211035Z AUTO 06005KT BKN100 12/07 A3036 RMK AO2 PWINO
KOZA 211015Z AUTO 05005KT SCT110 12/07 A3035 RMK AO2 PWINO
KOZA 210955Z AUTO 04004KT BKN110 12/08 A3036 RMK AO2 PWINO
KOZA 210935Z AUTO 04005KT OVC120 12/08 A3036 RMK AO2 PWINO
KOZA 210915Z AUTO 04003KT OVC110 12/07 A3037 RMK AO2 PWINO
KOZA 210855Z AUTO 00000KT SCT110 12/08 A3037 RMK AO2 PWINO
KOZA 210835Z AUTO 00000KT SCT120 12/08 A3037 RMK AO2 PWINO
KOZA 210815Z AUTO 05005KT SCT120 12/08 A3037 RMK AO2 PWINO
KOZA 210755Z AUTO 03005KT SCT110 13/08 A3037 RMK AO2 PWINO
KOZA 210735Z AUTO 03005KT BKN110 13/08 A3037 RMK AO2 PWINO
KOZA 210715Z AUTO 04004KT BKN110 13/08 A3037 RMK AO2 PWINO
KOZA 210655Z AUTO 03005KT OVC120 13/08 A3037 RMK AO2 PWINO
KOZA 210635Z AUTO 05008KT OVC120 14/08 A3037 RMK AO2 PWINO
KOZA 210615Z AUTO 05006KT OVC110 14/09 A3037 RMK AO2 PWINO
KOZA 210555Z AUTO 04007KT OVC100 14/09 A3038 RMK AO2 PWINO
KOZA 210535Z AUTO 03007KT OVC100 15/10 A3037 RMK AO2 PWINO
KOZA 210515Z AUTO 01005KT OVC110 15/10 A3038 RMK AO2 PWINO
KOZA 210455Z AUTO 05005KT OVC120 15/11 A3038 RMK AO2 PWINO
KOZA 210435Z AUTO 03004KT BKN110 15/11 A3038 RMK AO2 PWINO
KOZA 210415Z AUTO 36004KT OVC110 15/12 A3038 RMK AO2 PWINO
KOZA 210355Z AUTO 33006KT OVC095 15/12 A3038 RMK AO2 PWINO
KOZA 210335Z AUTO 00000KT OVC095 15/12 A3038 RMK AO2 PWINO
KOZA 210315Z AUTO 33005KT BKN095 16/12 A3037 RMK AO2 PWINO
KOZA 210255Z AUTO 34006KT CLR 15/12 A3036 RMK AO2 PWINO
KOZA 210235Z AUTO 32006KT CLR 16/12 A3036 RMK AO2 PWINO
KOZA 210215Z AUTO 32005KT SCT120 16/12 A3035 RMK AO2 PWINO
KOZA 210155Z AUTO 36006KT OVC120 16/12 A3034 RMK AO2 PWINO
KOZA 210135Z AUTO 04008KT OVC120 17/12 A3033 RMK AO2 PWINO
KOZA 210115Z AUTO 03008KT OVC110 17/12 A3033 RMK AO2 PWINO
KOZA 210055Z AUTO 36006KT 280V040 OVC110 17/13 A3032 RMK AO2 PWINO
KOZA 210035Z AUTO 32006KT OVC110 16/13 A3032 RMK AO2 PWINO
KOZA 210015Z AUTO 34004KT 10SM OVC110 17/13 A3031 RMK AO2
KOZA 202355Z AUTO 34007KT 310V010 10SM OVC110 17/13 A3030 RMK AO2
KOZA 202335Z AUTO 36007KT 320V030 10SM BKN110 17/13 A3030 RMK AO2
KOZA 202315Z AUTO 33006KT 10SM BKN110 17/13 A3030 RMK AO2
KOZA 202255Z AUTO 34003KT 10SM BKN110 17/13 A3030 RMK AO2
KOZA 202235Z AUTO 34003KT 10SM SCT070 SCT085 BKN095 17/12 A3030 RMK AO2
KOZA 202215Z AUTO 33006KT 10SM SCT070 BKN080 OVC095 17/12 A3030 RMK AO2
KOZA 202155Z AUTO 36007KT 10SM SCT065 BKN075 OVC110 17/12 A3030 RMK AO2
KOZA 202135Z AUTO 03009KT 10SM SCT075 BKN080 BKN110 17/12 A3030 RMK AO2
KOZA 202115Z AUTO 02007KT 10SM SCT055 BKN070 OVC085 17/13 A3030 RMK AO2
KOZA 202055Z AUTO 02007KT 10SM -RA SCT026 SCT037 BKN075 17/13 A3030 RMK AO2 P0001
KOZA 202035Z AUTO 02007KT 10SM -RA SCT025 BKN065 OVC080 17/13 A3030 RMK AO2 P0001
KOZA 202015Z AUTO 31005KT 10SM -RA SCT050 BKN065 17/14 A3030 RMK AO2 P0001
KOZA 201955Z AUTO 32006KT 10SM -RA SCT047 SCT050 BKN075 17/15 A3030 RMK AO2 P0001
KOZA 201935Z AUTO 33006KT 10SM -RA SCT050 BKN070 OVC075 17/15 A3030 RMK AO2 P0001
KOZA 201915Z AUTO 33005KT 10SM -RA SCT033 BKN050 OVC060 17/14 A3030 RMK AO2 P0001
KOZA 201855Z AUTO 35005G08KT 10SM DZ SCT033 BKN060 OVC065 17/14 A3030 RMK AO2
KOZA 201835Z AUTO 02010KT 10SM SCT050 BKN065 OVC075 17/14 A3031 RMK AO2
KOZA 201815Z AUTO 01007KT 330V030 10SM SCT016 BKN065 OVC075 17/14 A3031 RMK AO2
KOZA 201755Z AUTO 36007KT 320V020 10SM OVC065 17/14 A3031 RMK AO2 P0001
KOZA 201735Z AUTO 03008KT 330V040 10SM -RA SCT050 OVC065 16/14 A3032 RMK AO2 P0001
KOZA 201715Z AUTO 03009KT 10SM OVC055 16/13 A3033 RMK AO2
KOZA 201655Z AUTO 33004KT 10SM OVC055 16/13 A3032 RMK AO2
KOZA 201635Z AUTO 04007KT 10SM OVC049 16/14 A3032 RMK AO2
KOZA 201615Z AUTO 04006KT 10SM -RA SCT028 SCT036 OVC049 16/14 A3032 RMK AO2
KOZA 201555Z AUTO 36006KT 7SM -RA SCT024 BKN038 OVC050 16/14 A3032 RMK AO2 P0005
KOZA 201535Z AUTO 03007KT 7SM -RA SCT033 BKN042 OVC065 15/14 A3031 RMK AO2 P0001
KOZA 201515Z AUTO 02009KT 10SM RA SCT044 OVC050 15/14 A3031 RMK AO2
KOZA 201455Z AUTO 34006KT 10SM -RA SCT027 BKN040 OVC050 15/14 A3031 RMK AO2 P0005
KOZA 201435Z AUTO 00000KT 7SM -RA SCT033 BKN039 OVC047 15/14 A3031 RMK AO2 P0004
KOZA 201415Z AUTO 34003KT 5SM RA BKN035 OVC045 15/13 A3030 RMK AO2 P0003
KOZA 201355Z AUTO 29004KT 7SM -RA BKN045 OVC050 15/13 A3029 RMK AO2 P0004
KOZA 201335Z AUTO 00000KT 7SM -RA SCT026 SCT031 OVC050 15/13 A3027 RMK AO2 P0002
KOZA 201315Z AUTO 00000KT 7SM -RA SCT026 OVC035 15/13 A3027 RMK AO2 P0001
KOZA 201255Z AUTO 00000KT 5SM -RA SCT032 OVC037 15/13 A3027 RMK AO2 P0010
KOZA 201235Z AUTO 32007KT 15/13 A3026 RMK AO2 P0009 PWINO
KOZA 201215Z AUTO 25005KT 15/13 A3026 RMK AO2 P0008 PWINO
KOZA 201155Z AUTO 00000KT 15/13 A3026 RMK AO2 P0004 PWINO
KOZA 201135Z AUTO 00000KT 15/13 A3025 RMK AO2 PWINO
KOZA 201115Z AUTO 00000KT OVC041 15/13 A3024 RMK AO2 PWINO
KOZA 201055Z AUTO 00000KT BKN031 OVC037 15/13 A3024 RMK AO2 PWINO
KOZA 201035Z AUTO 00000KT OVC029 15/13 A3024 RMK AO2 PWINO
KOZA 201015Z AUTO 00000KT OVC031 15/13 A3023 RMK AO2 PWINO
KOZA 200955Z AUTO 00000KT OVC033 15/13 A3023 RMK AO2 PWINO
KOZA 200935Z AUTO 00000KT OVC035 15/13 A3023 RMK AO2 PWINO
KOZA 200915Z AUTO 00000KT OVC037 15/13 A3023 RMK AO2 PWINO
KOZA 200855Z AUTO 36003KT OVC037 15/13 A3023 RMK AO2 PWINO
KOZA 200835Z AUTO 00000KT OVC037 15/13 A3024 RMK AO2 PWINO
KOZA 200815Z AUTO 00000KT OVC037 15/13 A3024 RMK AO2 PWINO
KOZA 200755Z AUTO 00000KT OVC039 15/13 A3024 RMK AO2 PWINO
KOZA 200735Z AUTO 00000KT BKN039 OVC047 15/13 A3023 RMK AO2 PWINO
KOZA 200715Z AUTO 00000KT BKN039 OVC047 15/13 A3023 RMK AO2 PWINO
KOZA 200655Z AUTO 00000KT OVC046 15/13 A3023 RMK AO2 PWINO
KOZA 200635Z AUTO 00000KT 15/13 A3023 RMK AO2 PWINO
KOZA 200615Z AUTO 01003KT 15/13 A3022 RMK AO2 PWINO
KOZA 200555Z AUTO 00000KT OVC047 15/13 A3023 RMK AO2 PWINO
KOZA 200535Z AUTO 00000KT OVC047 15/13 A3023 RMK AO2 PWINO
KOZA 200515Z AUTO 33003KT 14/13 A3024 RMK AO2 PWINO
KOZA 200455Z AUTO 00000KT 14/13 A3024 RMK AO2 PWINO
KOZA 200435Z AUTO 00000KT OVC049 14/13 A3024 RMK AO2 PWINO
KOZA 200415Z AUTO 00000KT BKN049 14/13 A3024 RMK AO2 PWINO
KOZA 200355Z AUTO 00000KT 15/13 A3024 RMK AO2 PWINO
KOZA 200335Z AUTO 00000KT 15/13 A3024 RMK AO2 PWINO
KOZA 200315Z AUTO 00000KT 15/13 A3024 RMK AO2 PWINO
KOZA 200255Z AUTO 00000KT 15/13 A3024 RMK AO2 PWINO
KOZA 200235Z AUTO 00000KT 15/13 A3024 RMK AO2 PWINO
KOZA 200215Z AUTO 00000KT BKN017 OVC110 15/13 A3024 RMK AO2 PWINO
KOZA 200155Z AUTO 00000KT OVC019 15/13 A3023 RMK AO2 PWINO
KOZA 200135Z AUTO 00000KT OVC019 15/13 A3023 RMK AO2 PWINO